sensor_id;sensor_type;location;lat;lon;timestamp;noise_LAeq;noise_LA_min;noise_LA_max;noise_LA01;noise_LA95
72858;Laerm;62742;52.136;4.500;2023-04-15T00:00:29;45.15;41.74;49.89;;
72858;Laerm;62742;52.136;4.500;2023-04-15T00:02:55;44.88;41.47;50.94;;
72858;Laerm;62742;52.136;4.500;2023-04-15T00:05:21;45.14;41.98;50.89;;
72858;Laerm;62742;52.136;4.500;2023-04-15T00:07:47;48.35;42.60;65.32;;
72858;Laerm;62742;52.136;4.500;2023-04-15T00:10:13;46.17;41.35;63.51;;
72858;Laerm;62742;52.136;4.500;2023-04-15T00:12:39;46.19;42.59;66.24;;
72858;Laerm;62742;52.136;4.500;2023-04-15T00:15:07;45.72;41.53;62.59;;
72858;Laerm;62742;52.136;4.500;2023-04-15T00:17:34;45.32;42.25;62.61;;
72858;Laerm;62742;52.136;4.500;2023-04-15T00:20:00;44.94;41.62;63.27;;
72858;Laerm;62742;52.136;4.500;2023-04-15T00:22:27;44.71;41.29;61.45;;
72858;Laerm;62742;52.136;4.500;2023-04-15T00:24:53;44.95;41.68;50.10;;
72858;Laerm;62742;52.136;4.500;2023-04-15T00:27:19;45.30;42.06;60.79;;
72858;Laerm;62742;52.136;4.500;2023-04-15T00:29:45;45.51;42.08;63.29;;
72858;Laerm;62742;52.136;4.500;2023-04-15T00:32:11;45.32;41.44;62.25;;
72858;Laerm;62742;52.136;4.500;2023-04-15T00:34:38;44.84;41.81;52.39;;
72858;Laerm;62742;52.136;4.500;2023-04-15T00:37:04;45.34;41.94;50.74;;
72858;Laerm;62742;52.136;4.500;2023-04-15T00:39:30;45.68;42.15;51.95;;
72858;Laerm;62742;52.136;4.500;2023-04-15T00:41:56;45.49;42.45;49.71;;
72858;Laerm;62742;52.136;4.500;2023-04-15T00:44:23;45.56;41.41;48.89;;
72858;Laerm;62742;52.136;4.500;2023-04-15T00:46:50;45.80;42.33;62.57;;
72858;Laerm;62742;52.136;4.500;2023-04-15T00:49:16;45.21;40.87;50.38;;
72858;Laerm;62742;52.136;4.500;2023-04-15T00:51:44;45.72;42.11;62.46;;
72858;Laerm;62742;52.136;4.500;2023-04-15T00:54:10;46.67;42.77;63.56;;
72858;Laerm;62742;52.136;4.500;2023-04-15T00:56:38;45.60;42.35;62.27;;
72858;Laerm;62742;52.136;4.500;2023-04-15T00:59:05;45.60;41.92;50.37;;
72858;Laerm;62742;52.136;4.500;2023-04-15T01:01:34;45.12;42.18;51.81;;
72858;Laerm;62742;52.136;4.500;2023-04-15T01:04:01;45.34;40.99;49.13;;
72858;Laerm;62742;52.136;4.500;2023-04-15T01:06:27;45.76;41.76;59.51;;
72858;Laerm;62742;52.136;4.500;2023-04-15T01:08:57;45.99;42.62;59.62;;
72858;Laerm;62742;52.136;4.500;2023-04-15T01:11:23;45.87;41.76;58.92;;
72858;Laerm;62742;52.136;4.500;2023-04-15T01:13:51;45.24;40.83;61.72;;
72858;Laerm;62742;52.136;4.500;2023-04-15T01:16:18;44.79;41.38;47.46;;
72858;Laerm;62742;52.136;4.500;2023-04-15T01:18:45;45.27;41.89;58.95;;
72858;Laerm;62742;52.136;4.500;2023-04-15T01:21:11;44.81;41.42;53.36;;
72858;Laerm;62742;52.136;4.500;2023-04-15T01:23:38;45.54;41.55;61.29;;
72858;Laerm;62742;52.136;4.500;2023-04-15T01:26:08;45.03;41.86;47.61;;
72858;Laerm;62742;52.136;4.500;2023-04-15T01:28:35;45.05;41.96;47.61;;
72858;Laerm;62742;52.136;4.500;2023-04-15T01:31:09;45.98;42.39;61.39;;
72858;Laerm;62742;52.136;4.500;2023-04-15T01:33:37;45.09;41.85;47.83;;
72858;Laerm;62742;52.136;4.500;2023-04-15T01:36:04;45.43;42.26;63.79;;
72858;Laerm;62742;52.136;4.500;2023-04-15T01:38:32;45.40;41.74;62.49;;
72858;Laerm;62742;52.136;4.500;2023-04-15T01:40:58;45.32;42.00;48.37;;
72858;Laerm;62742;52.136;4.500;2023-04-15T01:43:25;46.20;41.38;63.02;;
72858;Laerm;62742;52.136;4.500;2023-04-15T01:45:51;45.34;42.01;55.61;;
72858;Laerm;62742;52.136;4.500;2023-04-15T01:48:17;45.37;42.00;47.93;;
72858;Laerm;62742;52.136;4.500;2023-04-15T01:50:44;45.03;41.68;48.49;;
72858;Laerm;62742;52.136;4.500;2023-04-15T01:53:10;45.99;41.83;62.23;;
72858;Laerm;62742;52.136;4.500;2023-04-15T01:55:36;44.95;41.22;47.42;;
72858;Laerm;62742;52.136;4.500;2023-04-15T01:58:03;44.96;40.56;47.81;;
72858;Laerm;62742;52.136;4.500;2023-04-15T02:00:29;44.97;41.46;59.63;;
72858;Laerm;62742;52.136;4.500;2023-04-15T02:02:57;45.12;41.95;58.19;;
72858;Laerm;62742;52.136;4.500;2023-04-15T02:05:24;45.32;41.69;49.32;;
72858;Laerm;62742;52.136;4.500;2023-04-15T02:07:51;45.30;41.30;48.43;;
72858;Laerm;62742;52.136;4.500;2023-04-15T02:10:17;45.39;41.28;57.29;;
72858;Laerm;62742;52.136;4.500;2023-04-15T02:12:43;45.64;41.45;60.82;;
72858;Laerm;62742;52.136;4.500;2023-04-15T02:15:09;45.05;41.78;58.66;;
72858;Laerm;62742;52.136;4.500;2023-04-15T02:17:36;45.05;41.93;56.97;;
72858;Laerm;62742;52.136;4.500;2023-04-15T02:20:03;44.85;41.39;49.88;;
72858;Laerm;62742;52.136;4.500;2023-04-15T02:22:33;44.75;41.06;54.42;;
72858;Laerm;62742;52.136;4.500;2023-04-15T02:24:59;45.02;41.20;49.74;;
72858;Laerm;62742;52.136;4.500;2023-04-15T02:27:28;44.84;41.60;47.98;;
72858;Laerm;62742;52.136;4.500;2023-04-15T02:29:55;45.69;41.37;63.38;;
72858;Laerm;62742;52.136;4.500;2023-04-15T02:32:21;45.20;41.61;60.72;;
72858;Laerm;62742;52.136;4.500;2023-04-15T02:34:49;44.94;41.57;58.36;;
72858;Laerm;62742;52.136;4.500;2023-04-15T02:37:16;51.04;41.25;66.09;;
72858;Laerm;62742;52.136;4.500;2023-04-15T02:39:44;45.21;41.38;58.88;;
72858;Laerm;62742;52.136;4.500;2023-04-15T02:42:10;44.81;41.07;57.88;;
72858;Laerm;62742;52.136;4.500;2023-04-15T02:44:36;45.15;40.99;58.99;;
72858;Laerm;62742;52.136;4.500;2023-04-15T02:47:03;44.80;41.30;49.04;;
72858;Laerm;62742;52.136;4.500;2023-04-15T02:49:31;45.51;42.32;48.91;;
72858;Laerm;62742;52.136;4.500;2023-04-15T02:51:57;45.31;41.63;57.16;;
72858;Laerm;62742;52.136;4.500;2023-04-15T02:54:25;45.56;41.95;57.01;;
72858;Laerm;62742;52.136;4.500;2023-04-15T02:56:53;44.96;41.18;54.32;;
72858;Laerm;62742;52.136;4.500;2023-04-15T02:59:22;44.88;41.09;57.81;;
72858;Laerm;62742;52.136;4.500;2023-04-15T03:01:49;44.74;40.94;48.64;;
72858;Laerm;62742;52.136;4.500;2023-04-15T03:04:15;45.05;41.49;56.34;;
72858;Laerm;62742;52.136;4.500;2023-04-15T03:06:41;44.89;41.95;47.71;;
72858;Laerm;62742;52.136;4.500;2023-04-15T03:09:07;45.97;42.72;58.73;;
72858;Laerm;62742;52.136;4.500;2023-04-15T03:11:34;45.11;41.54;47.86;;
72858;Laerm;62742;52.136;4.500;2023-04-15T03:14:05;44.78;40.75;49.00;;
72858;Laerm;62742;52.136;4.500;2023-04-15T03:16:31;45.12;41.65;58.75;;
72858;Laerm;62742;52.136;4.500;2023-04-15T03:18:57;45.61;42.13;59.39;;
72858;Laerm;62742;52.136;4.500;2023-04-15T03:21:23;44.68;41.79;47.16;;
72858;Laerm;62742;52.136;4.500;2023-04-15T03:23:50;46.06;40.25;59.79;;
72858;Laerm;62742;52.136;4.500;2023-04-15T03:26:29;45.38;41.70;59.55;;
72858;Laerm;62742;52.136;4.500;2023-04-15T03:28:57;45.02;41.50;59.45;;
72858;Laerm;62742;52.136;4.500;2023-04-15T03:31:26;44.53;41.67;47.57;;
72858;Laerm;62742;52.136;4.500;2023-04-15T03:33:52;45.49;40.88;60.65;;
72858;Laerm;62742;52.136;4.500;2023-04-15T03:36:18;45.10;41.26;58.15;;
72858;Laerm;62742;52.136;4.500;2023-04-15T03:38:44;45.59;42.23;59.49;;
72858;Laerm;62742;52.136;4.500;2023-04-15T03:41:11;45.46;42.24;56.00;;
72858;Laerm;62742;52.136;4.500;2023-04-15T03:43:38;45.59;42.49;57.20;;
72858;Laerm;62742;52.136;4.500;2023-04-15T03:46:04;46.03;41.62;59.38;;
72858;Laerm;62742;52.136;4.500;2023-04-15T03:48:30;45.20;41.98;57.08;;
72858;Laerm;62742;52.136;4.500;2023-04-15T03:50:56;45.23;41.57;47.40;;
72858;Laerm;62742;52.136;4.500;2023-04-15T03:53:23;48.34;41.87;62.74;;
72858;Laerm;62742;52.136;4.500;2023-04-15T03:55:49;45.16;41.16;56.75;;
72858;Laerm;62742;52.136;4.500;2023-04-15T03:58:15;46.38;42.31;54.31;;
72858;Laerm;62742;52.136;4.500;2023-04-15T04:00:41;45.92;41.79;56.27;;
72858;Laerm;62742;52.136;4.500;2023-04-15T04:03:08;45.13;40.94;57.08;;
72858;Laerm;62742;52.136;4.500;2023-04-15T04:05:34;46.82;41.60;57.72;;
72858;Laerm;62742;52.136;4.500;2023-04-15T04:08:03;46.87;42.75;59.28;;
72858;Laerm;62742;52.136;4.500;2023-04-15T04:10:30;45.91;42.10;60.37;;
72858;Laerm;62742;52.136;4.500;2023-04-15T04:12:56;46.08;41.70;56.79;;
72858;Laerm;62742;52.136;4.500;2023-04-15T04:15:23;46.23;42.17;49.44;;
72858;Laerm;62742;52.136;4.500;2023-04-15T04:17:49;45.75;42.05;54.63;;
72858;Laerm;62742;52.136;4.500;2023-04-15T04:20:15;45.62;42.45;55.58;;
72858;Laerm;62742;52.136;4.500;2023-04-15T04:22:42;46.27;42.57;59.17;;
72858;Laerm;62742;52.136;4.500;2023-04-15T04:25:08;46.24;42.47;55.49;;
72858;Laerm;62742;52.136;4.500;2023-04-15T04:27:35;46.44;42.96;54.05;;
72858;Laerm;62742;52.136;4.500;2023-04-15T04:30:01;46.19;42.70;56.87;;
72858;Laerm;62742;52.136;4.500;2023-04-15T04:32:28;46.53;42.85;53.06;;
72858;Laerm;62742;52.136;4.500;2023-04-15T04:34:54;46.57;42.76;58.94;;
72858;Laerm;62742;52.136;4.500;2023-04-15T04:37:20;46.37;43.00;55.86;;
72858;Laerm;62742;52.136;4.500;2023-04-15T04:39:48;45.79;42.37;57.71;;
72858;Laerm;62742;52.136;4.500;2023-04-15T04:42:14;45.68;42.04;56.14;;
72858;Laerm;62742;52.136;4.500;2023-04-15T04:44:40;47.50;41.72;58.81;;
72858;Laerm;62742;52.136;4.500;2023-04-15T04:47:06;46.94;41.95;56.57;;
72858;Laerm;62742;52.136;4.500;2023-04-15T04:49:32;47.20;42.21;58.24;;
72858;Laerm;62742;52.136;4.500;2023-04-15T04:51:59;47.36;42.41;56.59;;
72858;Laerm;62742;52.136;4.500;2023-04-15T04:54:25;46.63;41.82;57.62;;
72858;Laerm;62742;52.136;4.500;2023-04-15T04:56:52;44.97;40.77;57.94;;
72858;Laerm;62742;52.136;4.500;2023-04-15T04:59:18;44.65;41.45;57.66;;
72858;Laerm;62742;52.136;4.500;2023-04-15T05:01:45;45.00;41.74;56.90;;
72858;Laerm;62742;52.136;4.500;2023-04-15T05:04:11;45.39;42.06;57.93;;
72858;Laerm;62742;52.136;4.500;2023-04-15T05:06:37;45.33;41.62;57.66;;
72858;Laerm;62742;52.136;4.500;2023-04-15T05:09:03;45.15;42.03;57.12;;
72858;Laerm;62742;52.136;4.500;2023-04-15T05:11:29;44.79;41.54;55.23;;
72858;Laerm;62742;52.136;4.500;2023-04-15T05:13:56;45.02;41.50;56.82;;
72858;Laerm;62742;52.136;4.500;2023-04-15T05:16:23;44.63;42.01;57.52;;
72858;Laerm;62742;52.136;4.500;2023-04-15T05:18:50;45.01;41.56;58.92;;
72858;Laerm;62742;52.136;4.500;2023-04-15T05:21:17;44.83;41.72;57.42;;
72858;Laerm;62742;52.136;4.500;2023-04-15T05:23:43;44.97;40.90;56.89;;
72858;Laerm;62742;52.136;4.500;2023-04-15T05:26:09;44.55;41.43;57.14;;
72858;Laerm;62742;52.136;4.500;2023-04-15T05:28:36;44.57;41.69;47.13;;
72858;Laerm;62742;52.136;4.500;2023-04-15T05:31:02;44.87;42.08;54.26;;
72858;Laerm;62742;52.136;4.500;2023-04-15T05:33:28;44.77;41.35;52.27;;
72858;Laerm;62742;52.136;4.500;2023-04-15T05:35:55;44.91;41.41;55.87;;
72858;Laerm;62742;52.136;4.500;2023-04-15T05:38:21;45.02;42.23;54.83;;
72858;Laerm;62742;52.136;4.500;2023-04-15T05:40:47;45.22;41.60;58.79;;
72858;Laerm;62742;52.136;4.500;2023-04-15T05:43:13;44.58;41.78;54.22;;
72858;Laerm;62742;52.136;4.500;2023-04-15T05:45:39;44.84;41.88;56.57;;
72858;Laerm;62742;52.136;4.500;2023-04-15T05:48:06;44.79;41.11;50.87;;
72858;Laerm;62742;52.136;4.500;2023-04-15T05:50:32;44.48;41.29;47.53;;
72858;Laerm;62742;52.136;4.500;2023-04-15T05:52:58;45.23;41.86;57.36;;
72858;Laerm;62742;52.136;4.500;2023-04-15T05:55:25;45.06;42.17;56.12;;
72858;Laerm;62742;52.136;4.500;2023-04-15T05:57:51;44.85;41.99;50.76;;
72858;Laerm;62742;52.136;4.500;2023-04-15T06:00:17;45.20;41.75;56.19;;
72858;Laerm;62742;52.136;4.500;2023-04-15T06:02:44;44.91;41.79;47.52;;
72858;Laerm;62742;52.136;4.500;2023-04-15T06:05:10;45.42;42.59;54.48;;
72858;Laerm;62742;52.136;4.500;2023-04-15T06:07:37;45.42;42.33;58.64;;
72858;Laerm;62742;52.136;4.500;2023-04-15T06:10:04;45.40;41.77;59.41;;
72858;Laerm;62742;52.136;4.500;2023-04-15T06:12:31;45.37;42.65;47.84;;
72858;Laerm;62742;52.136;4.500;2023-04-15T06:14:57;44.92;41.98;58.76;;
72858;Laerm;62742;52.136;4.500;2023-04-15T06:17:23;45.34;42.25;61.05;;
72858;Laerm;62742;52.136;4.500;2023-04-15T06:19:51;45.08;41.64;60.30;;
72858;Laerm;62742;52.136;4.500;2023-04-15T06:22:22;45.10;42.03;61.73;;
72858;Laerm;62742;52.136;4.500;2023-04-15T06:24:49;45.30;41.67;60.97;;
72858;Laerm;62742;52.136;4.500;2023-04-15T06:27:16;45.46;41.97;61.24;;
72858;Laerm;62742;52.136;4.500;2023-04-15T06:29:42;45.04;41.43;59.27;;
72858;Laerm;62742;52.136;4.500;2023-04-15T06:32:09;45.11;41.61;58.04;;
72858;Laerm;62742;52.136;4.500;2023-04-15T06:34:35;45.13;41.93;47.48;;
72858;Laerm;62742;52.136;4.500;2023-04-15T06:37:02;45.54;41.72;58.93;;
72858;Laerm;62742;52.136;4.500;2023-04-15T06:39:28;45.21;41.92;58.72;;
72858;Laerm;62742;52.136;4.500;2023-04-15T06:41:54;44.87;41.40;59.43;;
72858;Laerm;62742;52.136;4.500;2023-04-15T06:44:21;44.96;41.89;53.93;;
72858;Laerm;62742;52.136;4.500;2023-04-15T06:46:47;44.93;41.54;47.85;;
72858;Laerm;62742;52.136;4.500;2023-04-15T06:49:14;45.03;41.30;47.65;;
72858;Laerm;62742;52.136;4.500;2023-04-15T06:51:41;46.15;42.09;63.92;;
72858;Laerm;62742;52.136;4.500;2023-04-15T06:54:07;45.46;42.82;47.84;;
72858;Laerm;62742;52.136;4.500;2023-04-15T06:56:34;45.30;42.44;47.94;;
72858;Laerm;62742;52.136;4.500;2023-04-15T06:59:00;45.39;42.67;47.88;;
72858;Laerm;62742;52.136;4.500;2023-04-15T07:01:27;45.73;42.92;48.26;;
72858;Laerm;62742;52.136;4.500;2023-04-15T07:03:53;45.67;42.49;47.96;;
72858;Laerm;62742;52.136;4.500;2023-04-15T07:06:19;45.50;42.67;47.81;;
72858;Laerm;62742;52.136;4.500;2023-04-15T07:08:46;45.15;41.67;47.76;;
72858;Laerm;62742;52.136;4.500;2023-04-15T07:11:13;45.48;42.08;48.04;;
72858;Laerm;62742;52.136;4.500;2023-04-15T07:13:40;45.25;42.09;47.84;;
72858;Laerm;62742;52.136;4.500;2023-04-15T07:16:06;46.40;42.33;63.19;;
72858;Laerm;62742;52.136;4.500;2023-04-15T07:18:32;47.47;42.32;64.30;;
72858;Laerm;62742;52.136;4.500;2023-04-15T07:20:59;45.57;41.96;48.02;;
72858;Laerm;62742;52.136;4.500;2023-04-15T07:23:25;45.86;42.43;64.23;;
72858;Laerm;62742;52.136;4.500;2023-04-15T07:25:51;46.71;44.01;49.03;;
72858;Laerm;62742;52.136;4.500;2023-04-15T07:28:17;46.22;43.23;48.85;;
72858;Laerm;62742;52.136;4.500;2023-04-15T07:30:44;47.06;43.77;64.89;;
72858;Laerm;62742;52.136;4.500;2023-04-15T07:33:10;46.48;43.70;50.20;;
72858;Laerm;62742;52.136;4.500;2023-04-15T07:35:37;45.95;42.24;48.32;;
72858;Laerm;62742;52.136;4.500;2023-04-15T07:38:03;45.90;42.63;62.33;;
72858;Laerm;62742;52.136;4.500;2023-04-15T07:40:29;45.76;42.13;50.98;;
72858;Laerm;62742;52.136;4.500;2023-04-15T07:42:55;46.18;42.74;57.83;;
72858;Laerm;62742;52.136;4.500;2023-04-15T07:45:23;45.77;42.19;49.24;;
72858;Laerm;62742;52.136;4.500;2023-04-15T07:47:50;46.07;43.16;49.16;;
72858;Laerm;62742;52.136;4.500;2023-04-15T07:50:16;46.15;42.49;62.32;;
72858;Laerm;62742;52.136;4.500;2023-04-15T07:52:43;45.45;41.88;48.85;;
72858;Laerm;62742;52.136;4.500;2023-04-15T07:55:09;45.76;42.83;48.47;;
72858;Laerm;62742;52.136;4.500;2023-04-15T07:57:36;46.24;42.17;50.42;;
72858;Laerm;62742;52.136;4.500;2023-04-15T08:00:03;46.54;43.43;49.35;;
72858;Laerm;62742;52.136;4.500;2023-04-15T08:02:32;46.26;42.89;49.62;;
72858;Laerm;62742;52.136;4.500;2023-04-15T08:04:58;47.82;42.80;66.81;;
72858;Laerm;62742;52.136;4.500;2023-04-15T08:07:24;46.40;43.50;49.73;;
72858;Laerm;62742;52.136;4.500;2023-04-15T08:09:51;46.73;43.19;50.51;;
72858;Laerm;62742;52.136;4.500;2023-04-15T08:12:17;46.47;42.54;49.98;;
72858;Laerm;62742;52.136;4.500;2023-04-15T08:14:44;46.23;43.29;48.89;;
72858;Laerm;62742;52.136;4.500;2023-04-15T08:17:10;47.12;43.09;64.85;;
72858;Laerm;62742;52.136;4.500;2023-04-15T08:19:37;46.10;42.70;48.58;;
72858;Laerm;62742;52.136;4.500;2023-04-15T08:22:03;46.24;42.95;49.29;;
72858;Laerm;62742;52.136;4.500;2023-04-15T08:24:30;46.18;43.07;48.71;;
72858;Laerm;62742;52.136;4.500;2023-04-15T08:26:56;45.97;42.64;48.71;;
72858;Laerm;62742;52.136;4.500;2023-04-15T08:29:23;46.51;42.77;63.37;;
72858;Laerm;62742;52.136;4.500;2023-04-15T08:31:49;46.07;43.03;48.62;;
72858;Laerm;62742;52.136;4.500;2023-04-15T08:34:15;46.30;43.18;49.31;;
72858;Laerm;62742;52.136;4.500;2023-04-15T08:36:42;46.02;42.19;49.69;;
72858;Laerm;62742;52.136;4.500;2023-04-15T08:39:08;46.01;42.42;49.04;;
72858;Laerm;62742;52.136;4.500;2023-04-15T08:42:01;45.84;42.27;49.39;;
72858;Laerm;62742;52.136;4.500;2023-04-15T08:44:29;46.03;43.01;49.24;;
72858;Laerm;62742;52.136;4.500;2023-04-15T08:47:00;45.60;42.58;48.83;;
72858;Laerm;62742;52.136;4.500;2023-04-15T08:49:28;45.53;41.74;52.66;;
72858;Laerm;62742;52.136;4.500;2023-04-15T08:51:56;45.70;42.91;50.89;;
72858;Laerm;62742;52.136;4.500;2023-04-15T08:54:23;46.05;42.97;50.62;;
72858;Laerm;62742;52.136;4.500;2023-04-15T08:56:50;45.55;42.25;48.84;;
72858;Laerm;62742;52.136;4.500;2023-04-15T08:59:18;45.46;42.17;48.25;;
72858;Laerm;62742;52.136;4.500;2023-04-15T09:01:46;45.83;42.94;48.44;;
72858;Laerm;62742;52.136;4.500;2023-04-15T09:04:13;47.30;42.40;65.80;;
72858;Laerm;62742;52.136;4.500;2023-04-15T09:06:39;46.25;43.41;50.41;;
72858;Laerm;62742;52.136;4.500;2023-04-15T09:09:06;45.95;42.98;49.29;;
72858;Laerm;62742;52.136;4.500;2023-04-15T09:11:33;46.12;42.65;62.33;;
72858;Laerm;62742;52.136;4.500;2023-04-15T09:13:59;47.01;42.29;64.85;;
72858;Laerm;62742;52.136;4.500;2023-04-15T09:16:26;46.78;42.52;64.79;;
72858;Laerm;62742;52.136;4.500;2023-04-15T09:18:53;46.24;41.93;63.48;;
72858;Laerm;62742;52.136;4.500;2023-04-15T09:21:20;46.29;42.98;49.35;;
72858;Laerm;62742;52.136;4.500;2023-04-15T09:23:58;46.34;42.49;51.48;;
72858;Laerm;62742;52.136;4.500;2023-04-15T09:26:35;46.50;43.70;49.23;;
72858;Laerm;62742;52.136;4.500;2023-04-15T09:29:03;46.36;43.07;50.11;;
72858;Laerm;62742;52.136;4.500;2023-04-15T09:31:31;46.73;43.61;62.75;;
72858;Laerm;62742;52.136;4.500;2023-04-15T09:33:58;46.45;43.58;49.58;;
72858;Laerm;62742;52.136;4.500;2023-04-15T09:36:24;46.06;42.27;51.20;;
72858;Laerm;62742;52.136;4.500;2023-04-15T09:38:58;48.06;43.00;64.47;;
72858;Laerm;62742;52.136;4.500;2023-04-15T09:41:26;46.80;43.66;51.67;;
72858;Laerm;62742;52.136;4.500;2023-04-15T09:43:52;46.76;43.77;49.98;;
72858;Laerm;62742;52.136;4.500;2023-04-15T09:46:18;46.51;43.63;49.66;;
72858;Laerm;62742;52.136;4.500;2023-04-15T09:48:45;50.79;42.43;64.06;;
72858;Laerm;62742;52.136;4.500;2023-04-15T09:51:11;47.11;43.33;61.56;;
72858;Laerm;62742;52.136;4.500;2023-04-15T09:53:37;47.12;42.40;64.77;;
72858;Laerm;62742;52.136;4.500;2023-04-15T09:56:04;46.16;43.19;54.37;;
72858;Laerm;62742;52.136;4.500;2023-04-15T09:58:33;46.31;43.45;49.46;;
72858;Laerm;62742;52.136;4.500;2023-04-15T10:01:02;46.30;43.19;49.51;;
72858;Laerm;62742;52.136;4.500;2023-04-15T10:03:32;47.97;43.88;66.47;;
72858;Laerm;62742;52.136;4.500;2023-04-15T10:06:00;46.79;43.61;50.36;;
72858;Laerm;62742;52.136;4.500;2023-04-15T10:08:28;47.79;42.34;61.47;;
72858;Laerm;62742;52.136;4.500;2023-04-15T10:10:55;46.59;43.29;50.00;;
72858;Laerm;62742;52.136;4.500;2023-04-15T10:13:26;46.83;42.89;50.74;;
72858;Laerm;62742;52.136;4.500;2023-04-15T10:15:59;46.95;43.92;50.63;;
72858;Laerm;62742;52.136;4.500;2023-04-15T10:18:27;47.40;43.40;65.49;;
72858;Laerm;62742;52.136;4.500;2023-04-15T10:20:54;46.82;43.15;51.83;;
72858;Laerm;62742;52.136;4.500;2023-04-15T10:23:22;46.36;43.50;49.71;;
72858;Laerm;62742;52.136;4.500;2023-04-15T10:25:51;46.87;43.79;50.69;;
72858;Laerm;62742;52.136;4.500;2023-04-15T10:28:18;48.99;43.01;66.04;;
72858;Laerm;62742;52.136;4.500;2023-04-15T10:30:45;48.27;43.63;65.59;;
72858;Laerm;62742;52.136;4.500;2023-04-15T10:33:13;46.49;43.14;51.24;;
72858;Laerm;62742;52.136;4.500;2023-04-15T10:35:42;47.12;43.08;66.33;;
72858;Laerm;62742;52.136;4.500;2023-04-15T10:38:40;46.41;43.00;50.86;;
72858;Laerm;62742;52.136;4.500;2023-04-15T10:41:21;46.56;43.23;60.73;;
72858;Laerm;62742;52.136;4.500;2023-04-15T10:44:02;46.75;42.41;64.08;;
72858;Laerm;62742;52.136;4.500;2023-04-15T10:46:40;46.87;42.64;63.54;;
72858;Laerm;62742;52.136;4.500;2023-04-15T10:51:41;46.37;43.25;61.23;;
72858;Laerm;62742;52.136;4.500;2023-04-15T10:56:51;46.14;42.83;50.64;;
72858;Laerm;62742;52.136;4.500;2023-04-15T10:59:59;46.68;42.59;64.64;;
72858;Laerm;62742;52.136;4.500;2023-04-15T11:05:10;45.81;42.63;49.92;;
72858;Laerm;62742;52.136;4.500;2023-04-15T11:07:40;46.02;42.96;50.27;;
72858;Laerm;62742;52.136;4.500;2023-04-15T11:12:39;46.92;42.82;63.64;;
72858;Laerm;62742;52.136;4.500;2023-04-15T11:15:29;46.14;42.91;49.26;;
72858;Laerm;62742;52.136;4.500;2023-04-15T11:18:07;46.90;42.82;63.73;;
72858;Laerm;62742;52.136;4.500;2023-04-15T11:20:35;46.33;43.22;51.22;;
72858;Laerm;62742;52.136;4.500;2023-04-15T11:23:01;47.86;42.71;64.36;;
72858;Laerm;62742;52.136;4.500;2023-04-15T11:25:30;46.83;42.64;64.25;;
72858;Laerm;62742;52.136;4.500;2023-04-15T11:27:59;47.37;43.30;64.71;;
72858;Laerm;62742;52.136;4.500;2023-04-15T11:30:28;47.38;43.27;66.56;;
72858;Laerm;62742;52.136;4.500;2023-04-15T11:32:58;46.24;42.81;49.07;;
72858;Laerm;62742;52.136;4.500;2023-04-15T11:35:24;47.29;43.10;55.33;;
72858;Laerm;62742;52.136;4.500;2023-04-15T11:37:51;47.83;43.91;55.29;;
72858;Laerm;62742;52.136;4.500;2023-04-15T11:40:23;47.81;43.60;55.16;;
72858;Laerm;62742;52.136;4.500;2023-04-15T11:45:31;47.99;44.77;54.61;;
72858;Laerm;62742;52.136;4.500;2023-04-15T11:48:10;48.78;43.57;63.18;;
72858;Laerm;62742;52.136;4.500;2023-04-15T11:50:37;46.69;43.89;52.82;;
72858;Laerm;62742;52.136;4.500;2023-04-15T11:53:07;46.72;43.80;53.30;;
72858;Laerm;62742;52.136;4.500;2023-04-15T11:55:44;50.90;44.31;67.86;;
72858;Laerm;62742;52.136;4.500;2023-04-15T11:58:23;46.58;43.49;51.57;;
72858;Laerm;62742;52.136;4.500;2023-04-15T12:00:52;47.11;43.52;63.80;;
72858;Laerm;62742;52.136;4.500;2023-04-15T12:03:30;48.52;43.36;66.77;;
72858;Laerm;62742;52.136;4.500;2023-04-15T12:06:16;46.54;43.48;50.84;;
72858;Laerm;62742;52.136;4.500;2023-04-15T12:16:24;46.13;42.58;61.84;;
72858;Laerm;62742;52.136;4.500;2023-04-15T12:18:52;46.90;43.18;68.18;;
72858;Laerm;62742;52.136;4.500;2023-04-15T12:21:22;46.19;43.33;49.54;;
72858;Laerm;62742;52.136;4.500;2023-04-15T12:23:53;46.69;43.00;67.31;;
72858;Laerm;62742;52.136;4.500;2023-04-15T12:26:33;47.73;43.27;67.23;;
72858;Laerm;62742;52.136;4.500;2023-04-15T12:29:07;46.13;43.24;49.68;;
72858;Laerm;62742;52.136;4.500;2023-04-15T12:31:34;46.30;42.79;67.46;;
72858;Laerm;62742;52.136;4.500;2023-04-15T12:34:06;45.85;41.44;62.31;;
72858;Laerm;62742;52.136;4.500;2023-04-15T12:36:33;46.36;43.26;67.39;;
72858;Laerm;62742;52.136;4.500;2023-04-15T12:39:05;46.21;43.30;50.35;;
72858;Laerm;62742;52.136;4.500;2023-04-15T12:41:32;46.08;42.92;48.76;;
72858;Laerm;62742;52.136;4.500;2023-04-15T12:43:59;48.33;42.43;67.98;;
72858;Laerm;62742;52.136;4.500;2023-04-15T12:46:26;46.58;42.88;68.12;;
72858;Laerm;62742;52.136;4.500;2023-04-15T12:48:52;46.83;42.74;67.66;;
72858;Laerm;62742;52.136;4.500;2023-04-15T12:51:19;45.94;43.02;48.73;;
72858;Laerm;62742;52.136;4.500;2023-04-15T12:53:48;46.23;43.31;49.32;;
72858;Laerm;62742;52.136;4.500;2023-04-15T12:56:15;46.69;43.08;66.45;;
72858;Laerm;62742;52.136;4.500;2023-04-15T12:58:44;47.67;43.99;67.36;;
72858;Laerm;62742;52.136;4.500;2023-04-15T13:01:11;46.20;43.23;48.99;;
72858;Laerm;62742;52.136;4.500;2023-04-15T13:03:37;46.85;43.26;67.21;;
72858;Laerm;62742;52.136;4.500;2023-04-15T13:06:03;47.65;42.69;67.69;;
72858;Laerm;62742;52.136;4.500;2023-04-15T13:08:30;46.24;43.52;49.37;;
72858;Laerm;62742;52.136;4.500;2023-04-15T13:10:57;48.67;43.65;68.36;;
72858;Laerm;62742;52.136;4.500;2023-04-15T13:13:23;46.15;43.40;49.96;;
72858;Laerm;62742;52.136;4.500;2023-04-15T13:15:49;46.11;43.01;66.91;;
72858;Laerm;62742;52.136;4.500;2023-04-15T13:18:16;46.92;43.01;65.68;;
72858;Laerm;62742;52.136;4.500;2023-04-15T13:20:42;47.21;42.75;67.81;;
72858;Laerm;62742;52.136;4.500;2023-04-15T13:23:08;46.06;43.18;49.92;;
72858;Laerm;62742;52.136;4.500;2023-04-15T13:25:34;46.32;43.09;51.33;;
72858;Laerm;62742;52.136;4.500;2023-04-15T13:28:01;46.05;43.16;49.20;;
72858;Laerm;62742;52.136;4.500;2023-04-15T13:30:27;46.11;42.84;48.92;;
72858;Laerm;62742;52.136;4.500;2023-04-15T13:32:53;46.28;42.94;67.50;;
72858;Laerm;62742;52.136;4.500;2023-04-15T13:35:19;45.74;42.95;49.74;;
72858;Laerm;62742;52.136;4.500;2023-04-15T13:37:46;46.72;42.76;66.31;;
72858;Laerm;62742;52.136;4.500;2023-04-15T13:40:12;46.09;42.61;65.87;;
72858;Laerm;62742;52.136;4.500;2023-04-15T13:42:39;46.26;43.00;66.69;;
72858;Laerm;62742;52.136;4.500;2023-04-15T13:45:06;46.25;42.53;64.76;;
72858;Laerm;62742;52.136;4.500;2023-04-15T13:47:32;48.20;42.39;67.46;;
72858;Laerm;62742;52.136;4.500;2023-04-15T13:49:58;45.55;42.52;48.86;;
72858;Laerm;62742;52.136;4.500;2023-04-15T13:52:25;46.62;42.47;66.67;;
72858;Laerm;62742;52.136;4.500;2023-04-15T13:54:51;46.10;42.47;49.37;;
72858;Laerm;62742;52.136;4.500;2023-04-15T13:57:17;45.94;42.11;49.38;;
72858;Laerm;62742;52.136;4.500;2023-04-15T13:59:43;46.65;42.38;67.43;;
72858;Laerm;62742;52.136;4.500;2023-04-15T14:02:11;46.00;41.96;66.63;;
72858;Laerm;62742;52.136;4.500;2023-04-15T14:04:37;46.76;41.81;67.63;;
72858;Laerm;62742;52.136;4.500;2023-04-15T14:07:04;46.48;41.90;67.00;;